Time;durP1;ratioP1;P1;durP2;ratioP2;P2;SDS_P1;SDS_P2;PMS_P1;PMS_P2;Temp;Humidity;BMP_temperature;BMP_pressure;BME280_temperature;BME280_humidity;BME280_pressure;Samples;Min_cycle;Max_cycle;Signal;HPM_P1;HPM_P2
2023/08/21 00:00:31;;;;;;;7.00;6.50;;;;;;;26.30;59.50;98416.59;5093192;28;20465;-75
2023/08/21 00:03:00;;;;;;;6.80;6.30;;;;;;;26.42;58.49;98417.84;5093187;28;20449;-74
2023/08/21 00:05:26;;;;;;;6.13;5.67;;;;;;;26.26;59.28;98423.84;5092731;28;20579;-74
2023/08/21 00:07:53;;;;;;;6.30;5.90;;;;;;;26.20;59.65;98423.06;5093217;28;20449;-74
2023/08/21 00:10:20;;;;;;;6.80;6.23;;;;;;;26.32;59.21;98419.91;5092989;28;20941;-74
2023/08/21 00:12:47;;;;;;;6.10;5.60;;;;;;;26.40;58.80;98416.47;5093141;28;20437;-74
2023/08/21 00:15:14;;;;;;;6.67;5.97;;;;;;;26.36;58.91;98416.25;5092400;28;20481;-75
2023/08/21 00:17:40;;;;;;;6.37;5.87;;;;;;;26.33;59.06;98413.22;5092840;28;20460;-74
2023/08/21 00:20:10;;;;;;;6.73;6.23;;;;;;;26.22;59.39;98411.69;5092895;28;20541;-74
2023/08/21 00:22:38;;;;;;;6.23;5.73;;;;;;;26.25;59.38;98414.69;5092470;28;20539;-73
2023/08/21 00:25:05;;;;;;;6.87;6.20;;;;;;;26.13;59.95;98421.75;5092285;28;20849;-75
2023/08/21 00:27:32;;;;;;;6.73;6.23;;;;;;;26.19;59.48;98415.03;5092584;28;20449;-74
2023/08/21 00:30:00;;;;;;;6.63;6.03;;;;;;;26.07;59.83;98419.03;5092828;28;20483;-74
2023/08/21 00:32:27;;;;;;;7.70;6.30;;;;;;;25.99;59.81;98416.88;5092433;28;20496;-74
2023/08/21 00:34:54;;;;;;;6.70;6.20;;;;;;;26.06;59.57;98411.81;5092108;28;20501;-74
2023/08/21 00:37:22;;;;;;;6.60;6.10;;;;;;;26.06;59.68;98414.59;5092387;28;21019;-74
2023/08/21 00:39:49;;;;;;;6.50;6.00;;;;;;;26.15;59.56;98420.34;5092629;28;20543;-74
2023/08/21 00:42:16;;;;;;;6.53;5.87;;;;;;;25.97;59.89;98408.06;5092396;28;20441;-74
2023/08/21 00:44:43;;;;;;;6.30;5.80;;;;;;;26.09;59.64;98405.69;5091846;28;20453;-75
2023/08/21 00:47:09;;;;;;;6.33;5.93;;;;;;;25.98;59.96;98411.66;5092257;28;20488;-74
2023/08/21 00:49:38;;;;;;;5.90;5.50;;;;;;;26.15;59.71;98411.19;5092188;28;20441;-74
2023/08/21 00:52:05;;;;;;;6.77;6.27;;;;;;;26.01;60.02;98402.72;5092411;28;20453;-74
2023/08/21 00:54:33;;;;;;;7.00;6.40;;;;;;;26.05;59.83;98398.25;5091731;28;20534;-75
2023/08/21 00:57:00;;;;;;;6.23;5.73;;;;;;;25.93;60.32;98400.63;5092231;28;20553;-74
2023/08/21 00:59:27;;;;;;;6.30;5.80;;;;;;;25.89;60.45;98394.81;5092113;28;20855;-74
2023/08/21 01:01:53;;;;;;;6.37;5.97;;;;;;;25.87;60.58;98399.84;5092014;28;20960;-74
2023/08/21 01:04:21;;;;;;;6.60;6.10;;;;;;;25.77;60.79;98392.44;5091724;28;20453;-74
2023/08/21 01:06:49;;;;;;;6.20;5.80;;;;;;;25.80;60.77;98398.50;5091199;28;20559;-74
2023/08/21 01:09:19;;;;;;;6.70;6.20;;;;;;;25.70;61.25;98400.25;5092008;28;20454;-73
2023/08/21 01:11:52;;;;;;;6.20;5.80;;;;;;;25.69;61.33;98397.78;5092092;28;20541;-74
2023/08/21 01:14:25;;;;;;;7.43;6.33;;;;;;;25.70;61.42;98396.66;5091039;28;20549;-75
2023/08/21 01:16:55;;;;;;;6.10;5.60;;;;;;;25.53;62.17;98396.25;5091556;28;20532;-74
2023/08/21 01:19:27;;;;;;;6.17;5.77;;;;;;;25.54;61.88;98395.13;5091742;28;20499;-75
2023/08/21 01:21:54;;;;;;;6.67;6.10;;;;;;;25.61;61.54;98390.09;5091506;28;20434;-74
2023/08/21 01:24:23;;;;;;;6.83;5.90;;;;;;;25.43;62.48;98395.22;5091567;28;20452;-74
2023/08/21 01:26:49;;;;;;;6.63;6.03;;;;;;;25.65;61.18;98399.50;5091727;28;20576;-74
2023/08/21 01:29:16;;;;;;;7.57;6.97;;;;;;;25.56;62.81;98403.97;5091727;28;20714;-74
2023/08/21 01:31:46;;;;;;;7.30;6.70;;;;;;;25.39;64.07;98399.66;5091525;28;20437;-74
2023/08/21 01:34:14;;;;;;;7.27;6.60;;;;;;;25.07;65.72;98402.13;5091048;28;20970;-74
2023/08/21 01:36:41;;;;;;;6.90;6.40;;;;;;;25.10;65.73;98396.00;5091431;28;20466;-74
2023/08/21 01:39:08;;;;;;;7.33;6.83;;;;;;;25.02;65.56;98399.38;5091297;28;20456;-74
2023/08/21 01:41:36;;;;;;;7.00;6.40;;;;;;;24.88;66.45;98401.94;5091234;28;20456;-74
2023/08/21 01:44:04;;;;;;;7.37;6.77;;;;;;;24.89;66.63;98400.84;5090720;28;20445;-74
2023/08/21 01:46:30;;;;;;;7.27;6.77;;;;;;;24.78;67.29;98390.94;5091239;28;20492;-75
2023/08/21 01:48:57;;;;;;;6.80;6.30;;;;;;;24.81;66.49;98395.06;5091278;28;20438;-74
2023/08/21 01:51:24;;;;;;;7.10;6.60;;;;;;;25.09;65.76;98397.13;5091135;28;20949;-74
2023/08/21 01:53:51;;;;;;;7.70;7.00;;;;;;;24.67;66.80;98403.19;5090753;28;20501;-74
2023/08/21 01:56:17;;;;;;;7.47;6.80;;;;;;;24.51;67.49;98401.59;5090966;28;20473;-74
2023/08/21 01:58:45;;;;;;;7.17;6.57;;;;;;;24.37;68.71;98401.34;5090541;28;20513;-74
2023/08/21 02:01:12;;;;;;;7.73;7.10;;;;;;;24.50;68.06;98395.22;5090970;28;20481;-74
2023/08/21 02:03:41;;;;;;;7.23;6.73;;;;;;;24.48;68.61;98397.44;5090774;28;20453;-74
2023/08/21 02:06:08;;;;;;;8.63;7.90;;;;;;;24.35;68.49;98393.38;5090422;28;20492;-74
2023/08/21 02:08:35;;;;;;;8.60;7.90;;;;;;;24.42;68.22;98402.16;5090209;28;20459;-73
2023/08/21 02:11:01;;;;;;;7.60;6.90;;;;;;;24.51;67.95;98396.88;5090197;28;20974;-74
2023/08/21 02:13:28;;;;;;;8.37;7.70;;;;;;;24.37;68.66;98401.34;5089466;28;21028;-74
2023/08/21 02:15:56;;;;;;;8.60;8.00;;;;;;;24.13;69.69;98396.44;5090353;28;20496;-74
2023/08/21 02:18:23;;;;;;;7.77;7.17;;;;;;;24.01;70.62;98392.34;5089452;28;20464;-74
2023/08/21 02:20:50;;;;;;;8.27;7.50;;;;;;;24.00;71.01;98402.56;5090059;28;20564;-75
2023/08/21 02:23:17;;;;;;;7.90;7.30;;;;;;;23.96;70.86;98395.13;5089572;28;20441;-74
2023/08/21 02:25:43;;;;;;;7.83;7.23;;;;;;;24.03;70.65;98396.50;5089326;28;20481;-74
2023/08/21 02:28:10;;;;;;;7.70;7.10;;;;;;;24.05;70.27;98399.78;5090176;28;20538;-74
2023/08/21 02:30:40;;;;;;;8.10;7.37;;;;;;;24.18;70.00;98405.84;5089860;28;20449;-74
2023/08/21 02:33:09;;;;;;;8.50;7.27;;;;;;;24.09;70.54;98395.34;5089433;28;21003;-74
2023/08/21 02:35:36;;;;;;;7.10;6.60;;;;;;;24.04;70.86;98400.88;5089720;28;20514;-74
2023/08/21 02:38:03;;;;;;;7.90;7.30;;;;;;;24.05;70.89;98404.47;5090237;28;20529;-74
2023/08/21 02:40:29;;;;;;;8.20;7.60;;;;;;;24.18;70.47;98409.44;5090147;28;20440;-74
2023/08/21 02:42:56;;;;;;;7.20;6.70;;;;;;;24.11;71.26;98406.94;5089887;28;20520;-73
2023/08/21 02:45:23;;;;;;;7.53;6.83;;;;;;;24.14;70.62;98402.78;5089182;28;20568;-74
2023/08/21 02:47:50;;;;;;;7.40;6.90;;;;;;;24.08;71.01;98401.97;5089899;28;20477;-74
2023/08/21 02:50:19;;;;;;;6.70;6.20;;;;;;;24.10;70.77;98410.81;5089763;28;20954;-74
2023/08/21 02:52:45;;;;;;;7.90;7.30;;;;;;;24.06;71.15;98401.44;5090116;28;20443;-74
2023/08/21 02:55:12;;;;;;;7.90;7.30;;;;;;;23.96;71.30;98411.72;5089677;28;20465;-74
2023/08/21 02:57:39;;;;;;;7.27;6.77;;;;;;;23.91;72.12;98409.78;5089966;28;20439;-74
2023/08/21 03:00:08;;;;;;;8.13;7.53;;;;;;;23.87;72.17;98411.44;5089568;28;20987;-74
2023/08/21 03:02:35;;;;;;;7.97;7.47;;;;;;;24.00;71.51;98413.63;5089384;28;20528;-74
2023/08/21 03:05:02;;;;;;;8.20;7.60;;;;;;;23.90;71.72;98401.75;5089492;28;20475;-74
2023/08/21 03:07:30;;;;;;;7.93;7.27;;;;;;;23.95;71.28;98407.28;5090130;28;20496;-74
2023/08/21 03:09:57;;;;;;;7.87;7.17;;;;;;;23.87;71.60;98405.09;5089730;28;20449;-75
2023/08/21 03:12:24;;;;;;;8.10;7.50;;;;;;;23.85;71.73;98399.81;5089928;28;20486;-74
2023/08/21 03:14:50;;;;;;;8.20;7.60;;;;;;;23.87;71.13;98400.38;5089217;28;20514;-74
2023/08/21 03:17:17;;;;;;;7.90;7.20;;;;;;;23.83;70.94;98403.97;5089553;28;20444;-75
2023/08/21 03:19:44;;;;;;;7.77;7.13;;;;;;;23.91;70.73;98400.66;5089368;28;20806;-74
2023/08/21 03:22:11;;;;;;;8.43;7.73;;;;;;;23.92;69.74;98400.38;5089869;28;20530;-74
2023/08/21 03:24:39;;;;;;;7.60;7.10;;;;;;;23.79;70.41;98406.47;5089110;28;20481;-74
2023/08/21 03:27:06;;;;;;;8.17;7.47;;;;;;;23.86;70.44;98406.19;5089214;28;21090;-74
2023/08/21 03:29:33;;;;;;;7.47;6.87;;;;;;;23.86;70.24;98407.03;5091967;28;20793;-75
2023/08/21 03:31:59;;;;;;;7.83;7.20;;;;;;;23.86;70.39;98401.50;5093654;28;20490;-74
2023/08/21 03:34:26;;;;;;;10.33;8.03;;;;;;;23.85;70.27;98405.34;5093506;28;20484;-74
2023/08/21 03:36:53;;;;;;;7.80;7.20;;;;;;;23.82;70.25;98405.91;5093224;28;21078;-74
2023/08/21 03:39:20;;;;;;;7.77;7.17;;;;;;;23.73;70.39;98404.81;5093162;28;20448;-74
2023/08/21 03:41:48;;;;;;;7.93;7.33;;;;;;;23.70;70.74;98409.00;5093618;28;20533;-73
2023/08/21 03:44:14;;;;;;;8.20;7.63;;;;;;;23.62;70.57;98411.47;5092938;28;20537;-74
2023/08/21 03:46:41;;;;;;;9.10;8.17;;;;;;;23.61;70.74;98410.66;5093349;28;20520;-74
2023/08/21 03:49:08;;;;;;;7.63;6.97;;;;;;;23.63;70.81;98418.66;5093535;28;20447;-74
2023/08/21 03:51:35;;;;;;;7.73;7.13;;;;;;;23.65;71.27;98416.47;5093499;28;20446;-74
2023/08/21 03:54:01;;;;;;;7.57;7.07;;;;;;;23.64;71.37;98423.09;5092641;28;20483;-75
2023/08/21 03:56:28;;;;;;;8.00;7.30;;;;;;;23.63;70.79;98419.50;5093008;28;21027;-73
2023/08/21 03:58:56;;;;;;;8.60;7.80;;;;;;;23.56;71.52;98420.88;5092693;28;21117;-74
2023/08/21 04:01:23;;;;;;;7.83;7.23;;;;;;;23.46;71.93;98428.03;5093256;28;20504;-74
2023/08/21 04:03:50;;;;;;;7.93;7.33;;;;;;;23.54;71.41;98423.09;5092815;28;20440;-74
2023/08/21 04:06:17;;;;;;;7.90;7.20;;;;;;;23.46;71.94;98425.25;5092749;28;20533;-74
2023/08/21 04:08:44;;;;;;;8.57;7.97;;;;;;;23.58;71.30;98426.94;5092344;28;20845;-74
2023/08/21 04:11:11;;;;;;;8.20;7.53;;;;;;;23.55;71.18;98431.09;5092977;28;20484;-73
2023/08/21 04:13:37;;;;;;;8.77;8.07;;;;;;;23.35;71.99;98442.97;5092445;28;20500;-74
2023/08/21 04:16:05;;;;;;;8.13;7.53;;;;;;;23.29;72.59;98438.53;5092196;28;21289;-74
2023/08/21 04:18:32;;;;;;;8.87;7.93;;;;;;;23.38;72.08;98445.16;5092659;28;20472;-74
2023/08/21 04:20:59;;;;;;;8.90;8.10;;;;;;;23.25;73.07;98448.47;5092659;28;20495;-74
2023/08/21 04:23:26;;;;;;;8.90;8.17;;;;;;;23.29;73.09;98444.03;5092257;28;20527;-74
2023/08/21 04:25:53;;;;;;;8.10;7.60;;;;;;;23.24;73.04;98449.56;5092083;28;20461;-73
2023/08/21 04:28:20;;;;;;;8.73;8.13;;;;;;;23.29;72.86;98449.56;5092492;28;20513;-74
2023/08/21 04:30:46;;;;;;;8.37;7.87;;;;;;;23.23;73.29;98449.84;5092318;28;20447;-74
2023/08/21 04:33:15;;;;;;;9.07;8.40;;;;;;;23.24;73.54;98449.56;5092050;28;20442;-74
2023/08/21 04:35:41;;;;;;;9.53;8.83;;;;;;;23.08;74.13;98456.97;5091975;28;20859;-73
2023/08/21 04:38:08;;;;;;;8.73;8.03;;;;;;;22.97;74.63;98448.97;5092100;28;20511;-74
2023/08/21 04:40:35;;;;;;;9.53;8.80;;;;;;;23.07;74.32;98449.78;5091255;28;20520;-74
2023/08/21 04:43:02;;;;;;;9.57;8.80;;;;;;;23.06;74.78;98455.63;5091796;28;20936;-73
2023/08/21 04:45:29;;;;;;;8.13;7.53;;;;;;;23.07;74.27;98443.44;5091838;28;20883;-74
2023/08/21 04:47:55;;;;;;;9.30;8.60;;;;;;;22.99;74.72;98441.22;5091699;28;21002;-74
2023/08/21 04:50:23;;;;;;;9.50;8.70;;;;;;;23.10;73.95;98442.91;5091719;28;20641;-73
2023/08/21 04:52:50;;;;;;;9.53;8.73;;;;;;;23.11;74.33;98447.31;5091897;28;20743;-74
2023/08/21 04:55:17;;;;;;;9.20;8.43;;;;;;;23.12;74.29;98454.50;5091689;28;20939;-74
2023/08/21 04:57:44;;;;;;;9.03;8.23;;;;;;;23.23;73.97;98453.44;5091685;28;20813;-74
2023/08/21 05:00:11;;;;;;;8.80;8.00;;;;;;;23.24;74.42;98446.78;5091873;28;20560;-74
2023/08/21 05:02:38;;;;;;;9.20;8.60;;;;;;;23.27;73.69;98449.00;5091617;28;20450;-74
2023/08/21 05:05:06;;;;;;;8.90;8.20;;;;;;;23.34;73.56;98444.06;5091363;28;20461;-74
2023/08/21 05:07:35;;;;;;;10.27;9.20;;;;;;;23.49;72.98;98456.22;5091417;28;20538;-73
2023/08/21 05:10:02;;;;;;;9.53;8.77;;;;;;;23.27;73.36;98465.59;5091399;28;20797;-74
2023/08/21 05:12:29;;;;;;;8.87;8.07;;;;;;;23.26;73.60;98468.63;5091613;28;20441;-74
2023/08/21 05:14:55;;;;;;;9.70;8.80;;;;;;;23.22;73.95;98462.81;5090674;28;20485;-73
2023/08/21 05:17:22;;;;;;;9.43;8.73;;;;;;;23.29;73.67;98465.31;5091536;28;20441;-74
2023/08/21 05:19:49;;;;;;;9.37;8.57;;;;;;;23.33;73.42;98464.50;5091430;28;20445;-74
2023/08/21 05:22:16;;;;;;;8.63;8.03;;;;;;;23.32;73.45;98457.31;5090862;28;20449;-74
2023/08/21 05:24:44;;;;;;;9.73;8.93;;;;;;;23.39;73.28;98463.38;5090816;28;20564;-74
2023/08/21 05:27:11;;;;;;;9.40;8.53;;;;;;;23.11;73.70;98419.69;5091238;28;20481;-74
2023/08/21 05:29:37;;;;;;;8.80;8.10;;;;;;;23.43;73.26;98472.78;5090980;28;20946;-74
2023/08/21 05:32:05;;;;;;;9.27;8.50;;;;;;;23.53;72.74;98469.22;5090666;28;20447;-74
2023/08/21 05:34:32;;;;;;;9.00;8.20;;;;;;;23.62;72.66;98464.00;5090673;28;20900;-74
2023/08/21 05:36:59;;;;;;;8.20;7.50;;;;;;;23.73;71.88;98474.75;5090781;28;20801;-74
2023/08/21 05:39:26;;;;;;;8.70;8.00;;;;;;;23.81;72.08;98470.59;5090624;28;20896;-73
2023/08/21 05:41:54;;;;;;;8.70;8.00;;;;;;;23.92;71.96;98474.22;5090602;28;20470;-73
2023/08/21 05:44:20;;;;;;;7.97;7.40;;;;;;;23.95;71.44;98477.25;5090744;28;20505;-74
2023/08/21 05:46:47;;;;;;;8.53;7.83;;;;;;;24.00;70.54;98477.25;5090950;28;20524;-74
2023/08/21 05:49:14;;;;;;;8.27;7.50;;;;;;;24.24;69.95;98474.72;5090994;28;20554;-73
2023/08/21 05:51:41;;;;;;;7.70;7.10;;;;;;;24.37;69.39;98485.19;5090156;28;20488;-74
2023/08/21 05:54:08;;;;;;;10.87;7.90;;;;;;;24.36;69.81;98486.34;5089936;28;20559;-74
2023/08/21 05:56:34;;;;;;;9.87;8.10;;;;;;;24.46;68.86;98488.22;5090760;28;20848;-73
2023/08/21 05:59:02;;;;;;;7.23;6.63;;;;;;;24.56;67.09;98485.44;5090385;28;20459;-74
2023/08/21 06:01:29;;;;;;;7.60;6.90;;;;;;;24.72;66.65;98481.50;5090167;28;20504;-73
2023/08/21 06:03:56;;;;;;;8.80;8.20;;;;;;;24.72;66.69;98481.50;5089855;28;20510;-74
2023/08/21 06:06:23;;;;;;;7.90;7.30;;;;;;;24.87;67.17;98485.31;5090208;28;20771;-74
2023/08/21 06:08:50;;;;;;;8.80;8.00;;;;;;;24.97;67.81;98488.09;5090282;28;20438;-74
2023/08/21 06:11:16;;;;;;;9.37;8.57;;;;;;;25.19;66.78;98480.19;5090227;28;20472;-74
2023/08/21 06:13:43;;;;;;;8.77;8.17;;;;;;;24.82;67.77;98490.88;5089615;28;20551;-74
2023/08/21 06:16:11;;;;;;;8.50;7.67;;;;;;;24.92;67.87;98490.84;5090035;28;20800;-74
2023/08/21 06:18:38;;;;;;;8.47;7.70;;;;;;;25.07;67.29;98494.38;5089969;28;20506;-74
2023/08/21 06:21:04;;;;;;;8.17;7.47;;;;;;;25.33;65.41;98492.31;5090017;28;20499;-74
2023/08/21 06:23:31;;;;;;;9.07;8.37;;;;;;;25.43;64.92;98483.91;5089882;28;20782;-74
2023/08/21 06:25:58;;;;;;;8.07;7.37;;;;;;;25.65;64.17;98489.06;5090172;28;20526;-74
2023/08/21 06:28:25;;;;;;;7.60;7.10;;;;;;;25.96;62.72;98489.63;5089984;28;20588;-74
2023/08/21 06:30:56;;;;;;;7.67;7.07;;;;;;;26.17;62.11;98494.97;5089296;28;20473;-74
2023/08/21 06:33:24;;;;;;;8.50;7.60;;;;;;;26.44;61.12;98495.28;5089689;28;20520;-74
2023/08/21 06:35:51;;;;;;;8.00;7.30;;;;;;;26.89;59.52;98505.03;5089368;28;20602;-73
2023/08/21 06:38:18;;;;;;;8.90;8.20;;;;;;;27.33;58.47;98495.56;5090080;28;20445;-74
2023/08/21 06:40:45;;;;;;;8.50;7.80;;;;;;;27.70;57.12;98495.59;5089943;28;20453;-74
2023/08/21 06:43:12;;;;;;;7.87;7.17;;;;;;;28.17;55.42;98492.88;5089674;28;20437;-74
2023/08/21 06:45:39;;;;;;;7.03;6.50;;;;;;;29.08;52.64;98503.09;5089036;28;20992;-74
2023/08/21 06:48:06;;;;;;;7.07;6.43;;;;;;;29.58;50.80;98491.94;5089658;28;20497;-74
2023/08/21 06:50:34;;;;;;;8.13;6.40;;;;;;;30.02;49.58;98498.69;5089412;28;21045;-74
2023/08/21 06:53:01;;;;;;;8.10;7.53;;;;;;;30.02;49.04;98499.53;5089645;28;20532;-74
2023/08/21 06:55:28;;;;;;;7.30;6.77;;;;;;;30.04;48.98;98505.63;5088960;28;20546;-74
2023/08/21 06:57:54;;;;;;;6.30;5.80;;;;;;;30.78;47.20;98504.25;5089232;28;20633;-74
2023/08/21 07:00:21;;;;;;;6.90;6.40;;;;;;;31.38;45.43;98505.25;5089700;28;20478;-74
2023/08/21 07:02:48;;;;;;;7.20;6.50;;;;;;;31.24;45.68;98498.13;5089622;28;20441;-74
2023/08/21 07:05:15;;;;;;;7.77;7.17;;;;;;;31.21;45.72;98501.59;5088942;28;20492;-75
2023/08/21 07:07:43;;;;;;;6.80;6.30;;;;;;;31.28;45.78;98502.75;5089007;28;20550;-75
2023/08/21 07:10:10;;;;;;;7.40;6.80;;;;;;;31.77;44.29;98503.50;5089055;28;20449;-74
2023/08/21 07:12:37;;;;;;;7.03;6.53;;;;;;;31.75;44.60;98508.59;5089194;28;20548;-74
2023/08/21 07:15:04;;;;;;;7.20;6.60;;;;;;;32.24;43.74;98506.41;5088771;28;20550;-75
2023/08/21 07:17:31;;;;;;;7.10;6.60;;;;;;;32.18;43.42;98516.94;5088934;28;20797;-74
2023/08/21 07:19:58;;;;;;;7.27;6.77;;;;;;;32.17;43.73;98506.88;5089350;28;20480;-74
2023/08/21 07:22:25;;;;;;;6.60;6.20;;;;;;;32.02;43.70;98507.41;5089088;28;20902;-74
2023/08/21 07:24:53;;;;;;;7.30;6.70;;;;;;;32.12;43.61;98509.06;5089123;28;20563;-74
2023/08/21 07:27:19;;;;;;;7.17;6.57;;;;;;;32.41;43.21;98512.00;5089031;28;20485;-74
2023/08/21 07:29:46;;;;;;;6.87;6.33;;;;;;;32.65;42.34;98520.66;5089031;28;20452;-75
2023/08/21 07:32:13;;;;;;;6.40;6.00;;;;;;;33.49;40.70;98515.28;5089043;28;20510;-74
2023/08/21 07:34:40;;;;;;;6.40;6.00;;;;;;;33.75;40.18;98515.94;5088843;28;20465;-75
2023/08/21 07:37:08;;;;;;;6.40;6.00;;;;;;;33.45;40.38;98512.38;5088875;28;20859;-74
2023/08/21 07:39:35;;;;;;;6.90;6.30;;;;;;;33.48;40.40;98516.47;5088952;28;20467;-74
2023/08/21 07:42:03;;;;;;;7.17;6.63;;;;;;;33.72;39.92;98511.84;5088855;28;20931;-75
2023/08/21 07:44:30;;;;;;;6.77;6.17;;;;;;;33.67;40.68;98526.06;5088874;28;20457;-74
2023/08/21 07:46:56;;;;;;;6.70;6.10;;;;;;;33.90;39.71;98523.75;5089354;28;20549;-74
2023/08/21 07:49:23;;;;;;;6.10;5.60;;;;;;;34.09;39.64;98526.09;5088916;28;20445;-74
2023/08/21 07:51:50;;;;;;;6.50;5.90;;;;;;;34.35;39.11;98523.88;5088817;28;20537;-74
2023/08/21 07:54:17;;;;;;;6.60;6.10;;;;;;;34.75;37.87;98528.88;5088551;28;20501;-75
2023/08/21 07:56:43;;;;;;;7.40;6.80;;;;;;;35.29;36.53;98525.91;5088491;28;20503;-74
2023/08/21 07:59:12;;;;;;;6.60;6.10;;;;;;;35.54;36.69;98529.50;5088892;28;20437;-74
2023/08/21 08:01:39;;;;;;;6.77;6.33;;;;;;;35.59;36.30;98534.88;5088998;28;20449;-75
2023/08/21 08:04:06;;;;;;;5.80;5.30;;;;;;;35.05;37.55;98534.31;5088294;28;20496;-74
2023/08/21 08:06:33;;;;;;;6.80;6.10;;;;;;;35.01;37.93;98526.56;5089122;28;20450;-74
2023/08/21 08:09:00;;;;;;;7.43;6.83;;;;;;;34.89;36.89;98537.00;5088592;28;20580;-74
2023/08/21 08:11:26;;;;;;;6.10;5.67;;;;;;;34.93;37.73;98532.31;5088912;28;20461;-75
2023/08/21 08:13:53;;;;;;;6.50;5.90;;;;;;;34.67;38.00;98530.63;5088084;28;20931;-74
2023/08/21 08:16:21;;;;;;;5.73;5.33;;;;;;;35.34;36.22;98531.28;5090740;28;20510;-74
2023/08/21 08:18:48;;;;;;;6.13;5.63;;;;;;;35.51;35.81;98527.38;5092664;28;20441;-75
2023/08/21 08:21:15;;;;;;;6.20;5.80;;;;;;;35.26;37.06;98546.28;5092721;28;20443;-75
2023/08/21 08:23:42;;;;;;;7.17;6.67;;;;;;;35.25;36.67;98542.63;5092044;28;21413;-74
2023/08/21 08:26:08;;;;;;;6.50;6.00;;;;;;;35.47;36.27;98534.88;5093755;28;20425;-74
2023/08/21 08:28:36;;;;;;;6.97;6.47;;;;;;;35.73;36.14;98535.34;5092559;28;21011;-74
2023/08/21 08:31:02;;;;;;;6.60;6.10;;;;;;;36.34;34.87;98529.53;5092201;28;20440;-75
2023/08/21 08:33:31;;;;;;;6.80;6.30;;;;;;;35.92;35.65;98529.06;5091986;28;20833;-74
2023/08/21 08:35:58;;;;;;;7.97;7.07;;;;;;;36.22;34.91;98526.72;5091794;28;20933;-74
2023/08/21 08:38:24;;;;;;;7.13;6.50;;;;;;;36.40;34.43;98528.06;5092356;28;20524;-74
2023/08/21 08:40:51;;;;;;;6.60;6.10;;;;;;;37.15;33.60;98524.41;5092317;28;20433;-74
2023/08/21 08:43:19;;;;;;;6.47;5.97;;;;;;;36.79;33.62;98523.50;5092026;28;20771;-74
2023/08/21 08:45:46;;;;;;;5.70;5.30;;;;;;;36.97;33.11;98523.97;5091740;28;20458;-74
2023/08/21 08:48:13;;;;;;;6.63;6.03;;;;;;;36.87;33.13;98518.84;5091644;28;20530;-74
2023/08/21 08:50:42;;;;;;;6.87;6.27;;;;;;;37.32;32.63;98519.22;5091873;28;20449;-75
2023/08/21 08:53:10;;;;;;;6.70;6.10;;;;;;;37.84;31.74;98525.66;5091994;28;20469;-75
2023/08/21 08:55:36;;;;;;;6.93;6.43;;;;;;;37.64;32.80;98519.13;5091672;28;20929;-75
2023/08/21 08:58:05;;;;;;;6.80;6.20;;;;;;;36.92;33.92;98521.41;5091907;28;20442;-75
2023/08/21 09:00:31;;;;;;;6.90;6.20;;;;;;;37.06;33.20;98521.75;5091583;28;20542;-75
2023/08/21 09:02:58;;;;;;;6.73;6.23;;;;;;;37.20;33.14;98521.31;5090978;28;20475;-74
2023/08/21 09:05:25;;;;;;;6.23;5.80;;;;;;;36.50;34.39;98519.06;5091772;28;20876;-74
2023/08/21 09:08:10;;;;;;;7.63;6.90;;;;;;;36.69;33.95;98518.38;5091413;28;20534;-74
2023/08/21 09:10:38;;;;;;;7.50;6.90;;;;;;;37.14;33.50;98517.94;5091183;28;21351;-74
2023/08/21 09:13:10;;;;;;;6.50;5.73;;;;;;;37.37;33.20;98515.25;5091020;28;20573;-75
2023/08/21 09:15:37;;;;;;;6.80;6.20;;;;;;;37.41;32.92;98521.00;5090909;28;20546;-74
2023/08/21 09:18:04;;;;;;;7.10;6.60;;;;;;;37.53;32.66;98518.06;5091959;28;20444;-74
2023/08/21 09:20:35;;;;;;;6.40;5.80;;;;;;;38.02;32.29;98515.53;5091137;28;20440;-74
2023/08/21 09:23:03;;;;;;;5.63;5.30;;;;;;;38.52;30.67;98520.22;5091186;28;20853;-74
2023/08/21 09:25:34;;;;;;;6.90;5.70;;;;;;;38.81;30.42;98512.25;5090639;28;20453;-74
2023/08/21 09:28:05;;;;;;;6.43;5.93;;;;;;;39.65;29.02;98514.84;5090688;28;20473;-75
2023/08/21 09:30:45;;;;;;;5.97;5.57;;;;;;;39.51;29.30;98518.31;5090911;28;20937;-75
2023/08/21 09:33:12;;;;;;;6.07;5.67;;;;;;;39.05;29.77;98513.91;5091154;28;20465;-74
2023/08/21 09:35:41;;;;;;;6.10;5.80;;;;;;;38.39;30.58;98518.72;5090956;28;20448;-74
2023/08/21 09:38:08;;;;;;;6.73;6.20;;;;;;;38.55;30.21;98519.47;5090552;28;20453;-75
2023/08/21 09:40:40;;;;;;;6.60;6.00;;;;;;;39.05;29.47;98513.91;5090799;28;20880;-74
2023/08/21 09:43:07;;;;;;;5.83;5.43;;;;;;;38.62;29.60;98507.47;5090959;28;20512;-74
2023/08/21 09:45:34;;;;;;;6.17;5.67;;;;;;;38.69;29.56;98509.59;5090730;28;20449;-74
2023/08/21 09:48:02;;;;;;;6.40;6.00;;;;;;;39.22;28.36;98510.56;5090710;28;20473;-74
2023/08/21 09:50:30;;;;;;;5.97;5.47;;;;;;;39.13;28.58;98515.66;5090978;28;20521;-74
2023/08/21 09:52:57;;;;;;;6.20;5.30;;;;;;;39.48;27.52;98509.75;5090123;28;20514;-75
2023/08/21 09:55:25;;;;;;;6.27;5.07;;;;;;;39.71;26.54;98507.66;5090524;28;20510;-75
2023/08/21 09:57:58;;;;;;;5.10;4.70;;;;;;;39.53;27.87;98506.59;5090604;28;20536;-75
2023/08/21 10:00:26;;;;;;;4.87;4.50;;;;;;;39.84;27.29;98506.22;5090430;28;20476;-75
2023/08/21 10:02:54;;;;;;;5.83;5.40;;;;;;;39.51;27.50;98511.81;5090463;28;20453;-75
2023/08/21 10:05:21;;;;;;;5.53;4.93;;;;;;;39.45;26.89;98505.66;5090447;28;20449;-75
2023/08/21 10:07:49;;;;;;;5.27;4.77;;;;;;;39.58;27.27;98504.25;5090337;28;20445;-75
2023/08/21 10:10:16;;;;;;;4.90;4.60;;;;;;;40.16;25.76;98494.47;5090189;28;21024;-76
2023/08/21 10:12:43;;;;;;;6.10;5.50;;;;;;;39.53;27.61;98495.25;5089789;28;20519;-75
2023/08/21 10:15:11;;;;;;;5.70;5.40;;;;;;;38.70;29.14;98491.41;5089667;28;20522;-75
2023/08/21 10:17:39;;;;;;;5.90;5.40;;;;;;;38.45;29.97;98479.63;5090236;28;20446;-75
2023/08/21 10:20:07;;;;;;;4.47;4.13;;;;;;;39.00;28.14;98495.19;5089919;28;20538;-75
2023/08/21 10:22:41;;;;;;;4.97;4.67;;;;;;;39.30;27.24;98486.81;5089569;28;20925;-75
2023/08/21 10:25:20;;;;;;;4.90;4.57;;;;;;;39.54;27.17;98480.69;5089945;28;20493;-76
2023/08/21 10:27:46;;;;;;;4.90;4.50;;;;;;;39.74;26.56;98475.69;5089921;28;20473;-75
2023/08/21 10:30:16;;;;;;;4.83;4.50;;;;;;;39.74;26.75;98472.84;5089970;28;20452;-75
2023/08/21 10:32:45;;;;;;;5.70;5.20;;;;;;;39.63;26.96;98477.59;5089462;28;20460;-75
2023/08/21 10:35:15;;;;;;;5.90;4.90;;;;;;;39.88;26.69;98473.06;5089850;28;20490;-75
2023/08/21 10:38:06;;;;;;;5.10;4.70;;;;;;;40.12;26.08;98473.75;5089860;28;20494;-75
2023/08/21 10:40:33;;;;;;;5.00;4.70;;;;;;;41.10;25.02;98464.59;5089941;28;20494;-75
2023/08/21 10:43:01;;;;;;;5.07;4.77;;;;;;;40.67;24.59;98459.75;5089290;28;20464;-75
2023/08/21 10:45:29;;;;;;;4.83;4.27;;;;;;;40.13;25.26;98466.88;5089348;28;20533;-75
2023/08/21 10:47:58;;;;;;;5.30;4.70;;;;;;;40.06;25.28;98478.13;5089696;28;20441;-75
2023/08/21 10:50:24;;;;;;;5.40;4.90;;;;;;;39.77;26.14;98463.59;5089884;28;20515;-74
2023/08/21 10:52:52;;;;;;;5.20;4.70;;;;;;;39.50;26.38;98467.69;5089818;28;20532;-75
2023/08/21 10:55:20;;;;;;;5.07;4.67;;;;;;;39.52;26.35;98459.59;5089110;28;20488;-74
2023/08/21 10:57:48;;;;;;;5.20;4.80;;;;;;;39.61;27.21;98457.31;5089796;28;20440;-74
2023/08/21 11:00:17;;;;;;;4.60;4.20;;;;;;;40.15;26.26;98459.63;5089721;28;20469;-75
2023/08/21 11:02:46;;;;;;;5.60;5.07;;;;;;;39.41;26.93;98465.09;5089389;28;20449;-74
2023/08/21 11:05:14;;;;;;;4.80;4.50;;;;;;;39.76;26.43;98464.78;5089022;28;20502;-75
2023/08/21 11:07:43;;;;;;;5.13;4.67;;;;;;;40.59;25.01;98448.34;5089340;28;20469;-75
2023/08/21 11:10:13;;;;;;;6.67;5.10;;;;;;;40.77;24.88;98456.22;5089515;28;20492;-75
2023/08/21 11:12:49;;;;;;;5.10;4.80;;;;;;;40.50;25.62;98453.53;5089583;28;20837;-74
2023/08/21 11:15:17;;;;;;;5.17;4.77;;;;;;;40.49;25.39;98456.75;5088658;28;20873;-75
2023/08/21 11:17:44;;;;;;;5.13;4.83;;;;;;;40.48;25.46;98463.63;5089475;28;20532;-74
2023/08/21 11:20:13;;;;;;;5.43;4.93;;;;;;;40.04;25.28;98466.38;5088247;28;20567;-74
2023/08/21 11:22:40;;;;;;;5.03;4.63;;;;;;;40.11;26.39;98463.63;5088806;28;20520;-75
2023/08/21 11:25:07;;;;;;;5.50;5.20;;;;;;;39.11;26.96;98456.56;5089245;28;20438;-74
2023/08/21 11:27:35;;;;;;;6.30;5.50;;;;;;;39.39;26.28;98450.47;5089408;28;20537;-74
2023/08/21 11:30:03;;;;;;;5.00;4.70;;;;;;;39.37;26.53;98452.06;5089168;28;20496;-74
2023/08/21 11:32:29;;;;;;;5.30;4.80;;;;;;;39.64;26.34;98462.19;5089312;28;20533;-75
2023/08/21 11:34:57;;;;;;;5.90;5.10;;;;;;;39.56;26.41;98446.31;5088891;28;20506;-74